Time;durP1;ratioP1;P1;durP2;ratioP2;P2;SDS_P1;SDS_P2;PMS_P1;PMS_P2;Temp;Humidity;BMP_temperature;BMP_pressure;BME280_temperature;BME280_humidity;BME280_pressure;Samples;Min_cycle;Max_cycle;Signal;HPM_P1;HPM_P2
2021/09/21 00:00:11;;;;;;;7.10;6.40;;;13.50;99.90;;;;;;2618797;54;20145;-72
2021/09/21 00:02:43;;;;;;;7.10;5.82;;;13.60;99.90;;;;;;2619291;39;20445;-73
2021/09/21 00:05:12;;;;;;;7.80;5.90;;;13.50;99.90;;;;;;2618956;54;20679;-71
2021/09/21 00:07:41;;;;;;;9.50;5.90;;;13.30;99.90;;;;;;2618891;47;20179;-72
2021/09/21 00:10:11;;;;;;;5.50;4.90;;;13.40;99.90;;;;;;2618664;54;20176;-72
2021/09/21 00:12:42;;;;;;;6.72;6.03;;;13.40;99.90;;;;;;2619704;39;20584;-72
2021/09/21 00:15:14;;;;;;;6.15;5.55;;;13.30;99.90;;;;;;2619021;47;20161;-72
2021/09/21 00:17:46;;;;;;;6.47;5.88;;;13.20;99.90;;;;;;2618915;47;20134;-72
2021/09/21 00:20:16;;;;;;;6.50;5.90;;;13.20;99.90;;;;;;2618864;54;20293;-72
2021/09/21 00:22:46;;;;;;;6.63;6.03;;;13.10;99.90;;;;;;2618875;47;20161;-72
2021/09/21 00:25:16;;;;;;;6.82;6.10;;;13.30;99.90;;;;;;2619023;39;20571;-72
2021/09/21 00:27:46;;;;;;;6.40;5.72;;;13.10;99.90;;;;;;2625411;47;20153;-73
2021/09/21 00:30:22;;;;;;;5.70;5.15;;;12.90;99.90;;;;;;2620463;47;20186;-72
2021/09/21 00:33:01;;;;;;;6.22;5.38;;;13.00;99.90;;;;;;2618781;54;20157;-72
2021/09/21 00:35:30;;;;;;;5.63;5.05;;;13.20;99.90;;;;;;2618599;47;20694;-72
2021/09/21 00:38:00;;;;;;;5.45;4.95;;;12.90;99.90;;;;;;2618901;54;20161;-73
2021/09/21 00:40:29;;;;;;;8.00;6.10;;;12.80;99.90;;;;;;2619066;47;20169;-72
2021/09/21 00:43:03;;;;;;;6.90;5.85;;;12.70;99.90;;;;;;2617646;51;20137;-72
2021/09/21 00:45:34;;;;;;;5.95;5.45;;;12.90;99.90;;;;;;2618165;47;20161;-72
2021/09/21 00:48:07;;;;;;;9.32;6.15;;;12.70;99.90;;;;;;2618455;47;20157;-72
2021/09/21 00:50:37;;;;;;;6.78;6.05;;;12.90;99.90;;;;;;2619213;54;20289;-72
2021/09/21 00:53:06;;;;;;;6.47;5.88;;;13.00;99.90;;;;;;2618404;54;20156;-74
2021/09/21 00:55:35;;;;;;;6.72;5.72;;;12.90;99.90;;;;;;2617760;47;20694;-73
2021/09/21 00:58:04;;;;;;;6.18;5.55;;;12.90;99.90;;;;;;2618239;47;20191;-72
2021/09/21 01:00:33;;;;;;;10.95;5.43;;;12.90;99.90;;;;;;2617932;54;20181;-72
2021/09/21 01:03:02;;;;;;;6.00;5.53;;;12.80;99.90;;;;;;2618182;47;20149;-72
2021/09/21 01:05:36;;;;;;;8.05;5.82;;;12.80;99.90;;;;;;2617816;54;20244;-72
2021/09/21 01:08:05;;;;;;;6.30;5.45;;;12.60;99.90;;;;;;2619307;39;20578;-73
2021/09/21 01:10:34;;;;;;;6.65;5.95;;;12.60;99.90;;;;;;2619423;47;20161;-71
2021/09/21 01:13:03;;;;;;;9.35;5.40;;;12.70;99.90;;;;;;2619089;54;20217;-73
2021/09/21 01:15:32;;;;;;;6.63;5.93;;;12.60;99.90;;;;;;2620440;39;20566;-71
2021/09/21 01:18:01;;;;;;;6.50;5.88;;;12.40;99.90;;;;;;2620440;47;20148;-73
2021/09/21 01:20:30;;;;;;;12.45;5.80;;;12.40;99.90;;;;;;2619537;54;20169;-72
2021/09/21 01:23:04;;;;;;;6.15;5.65;;;12.40;99.90;;;;;;2618908;47;20145;-72
2021/09/21 01:25:33;;;;;;;10.48;5.78;;;12.50;99.90;;;;;;2618921;39;20570;-72
2021/09/21 01:28:03;;;;;;;8.88;6.55;;;12.40;99.90;;;;;;2618877;54;20168;-72
2021/09/21 01:30:34;;;;;;;5.95;5.45;;;12.60;99.90;;;;;;2618724;54;20288;-72
2021/09/21 01:33:08;;;;;;;6.05;5.43;;;12.40;99.90;;;;;;2618721;47;20529;-71
2021/09/21 01:35:37;;;;;;;10.70;6.57;;;12.40;99.90;;;;;;2618609;47;20156;-72
2021/09/21 01:38:08;;;;;;;6.25;5.65;;;12.40;99.90;;;;;;2618619;49;20158;-72
2021/09/21 01:40:38;;;;;;;6.70;6.00;;;12.60;99.90;;;;;;2618530;54;20220;-71
2021/09/21 01:43:06;;;;;;;5.93;5.43;;;12.40;99.90;;;;;;2618611;47;20149;-72
2021/09/21 01:45:35;;;;;;;6.05;5.45;;;12.20;99.90;;;;;;2618602;54;20713;-72
2021/09/21 01:48:04;;;;;;;6.63;6.03;;;12.20;99.90;;;;;;2617967;47;20709;-72
2021/09/21 01:50:41;;;;;;;6.20;5.70;;;12.30;99.90;;;;;;2619380;39;20582;-72
2021/09/21 01:53:19;;;;;;;6.07;5.47;;;12.40;99.90;;;;;;2618598;47;20208;-72
2021/09/21 02:01:10;;;;;;;6.97;6.18;;;12.40;99.90;;;;;;2618540;54;20730;-72
2021/09/21 02:03:39;;;;;;;6.45;5.40;;;12.40;99.90;;;;;;2618505;54;20160;-72
2021/09/21 02:06:08;;;;;;;8.88;6.10;;;12.30;99.90;;;;;;2618627;47;20165;-72
2021/09/21 02:08:40;;;;;;;6.25;5.65;;;12.40;99.90;;;;;;2617314;47;20153;-72
2021/09/21 02:11:09;;;;;;;7.60;6.88;;;12.60;99.90;;;;;;2618364;47;20176;-73
2021/09/21 02:13:38;;;;;;;8.75;6.30;;;12.50;99.90;;;;;;2617918;54;20678;-72
2021/09/21 02:16:08;;;;;;;7.30;6.20;;;12.50;99.90;;;;;;2618341;54;20149;-73
2021/09/21 02:18:36;;;;;;;6.47;5.50;;;12.30;99.90;;;;;;2618396;54;20171;-72
2021/09/21 02:21:05;;;;;;;8.40;5.85;;;12.10;99.90;;;;;;2619029;39;20606;-72
2021/09/21 02:23:35;;;;;;;6.45;5.82;;;12.20;99.90;;;;;;2618155;47;20154;-73
2021/09/21 02:26:08;;;;;;;7.95;7.15;;;12.00;99.90;;;;;;2618278;54;20220;-72
2021/09/21 02:28:37;;;;;;;6.38;5.78;;;12.10;99.90;;;;;;2618473;47;20153;-72
2021/09/21 02:31:06;;;;;;;6.88;5.57;;;12.00;99.90;;;;;;2618495;47;20707;-75
2021/09/21 02:33:35;;;;;;;7.05;6.35;;;12.10;99.90;;;;;;2621649;39;20603;-73
2021/09/21 02:36:05;;;;;;;6.40;5.63;;;12.10;99.90;;;;;;2624562;47;20201;-73
2021/09/21 02:38:34;;;;;;;6.35;5.75;;;11.90;99.90;;;;;;2620886;47;20141;-73
2021/09/21 02:41:06;;;;;;;6.93;6.30;;;11.80;99.90;;;;;;2618310;47;20710;-73
2021/09/21 02:43:35;;;;;;;7.55;6.68;;;11.80;99.90;;;;;;2618022;54;20165;-72
2021/09/21 02:46:04;;;;;;;7.40;6.68;;;11.70;99.90;;;;;;2618954;39;20551;-72
2021/09/21 02:48:34;;;;;;;10.30;6.00;;;11.80;99.90;;;;;;2618252;54;20161;-72
2021/09/21 02:51:05;;;;;;;7.47;6.78;;;11.80;99.90;;;;;;2618315;54;20149;-74
2021/09/21 02:53:35;;;;;;;6.45;5.70;;;11.70;99.90;;;;;;2624875;47;20161;-73
2021/09/21 02:56:06;;;;;;;7.82;6.45;;;11.60;99.90;;;;;;2627303;47;20160;-73
2021/09/21 02:58:35;;;;;;;6.38;5.78;;;11.50;99.90;;;;;;2626851;47;20706;-73
2021/09/21 03:01:04;;;;;;;6.88;6.25;;;11.60;99.90;;;;;;2626668;47;20180;-73
2021/09/21 03:03:41;;;;;;;7.22;6.15;;;11.50;99.90;;;;;;2620066;47;20959;-73
2021/09/21 03:06:19;;;;;;;6.80;6.10;;;11.40;99.90;;;;;;2618581;47;20157;-72
2021/09/21 03:08:48;;;;;;;8.13;6.80;;;11.20;99.90;;;;;;2618111;47;20165;-72
2021/09/21 03:11:22;;;;;;;7.45;6.05;;;11.10;99.90;;;;;;2618255;47;20184;-73
2021/09/21 03:17:08;;;;;;;9.18;7.32;;;11.00;99.90;;;;;;2617856;47;20154;-73
2021/09/21 03:19:29;;;;;;;6.97;6.25;;;11.10;99.90;;;;;;2618351;47;20746;-72
2021/09/21 03:21:58;;;;;;;7.25;6.47;;;11.10;99.90;;;;;;2618224;47;20223;-75
2021/09/21 03:24:27;;;;;;;7.55;6.85;;;11.10;99.90;;;;;;2617575;31;20693;-73
2021/09/21 03:26:59;;;;;;;6.95;6.28;;;11.20;99.90;;;;;;2618972;54;20152;-72
2021/09/21 03:29:28;;;;;;;7.72;6.43;;;11.20;99.90;;;;;;2617872;47;20164;-73
2021/09/21 03:31:57;;;;;;;7.45;6.70;;;11.10;99.90;;;;;;2619101;46;20690;-73
2021/09/21 03:34:26;;;;;;;8.15;6.70;;;11.00;99.90;;;;;;2619325;39;20622;-73
2021/09/21 03:36:55;;;;;;;7.60;6.43;;;10.90;99.90;;;;;;2619295;54;20138;-73
2021/09/21 03:39:24;;;;;;;8.13;7.00;;;10.80;99.90;;;;;;2619005;47;20176;-73
2021/09/21 03:41:53;;;;;;;7.05;6.35;;;10.60;99.90;;;;;;2619036;47;20268;-73
2021/09/21 03:44:26;;;;;;;8.95;7.25;;;10.80;99.90;;;;;;2618931;54;20157;-73
2021/09/21 03:46:55;;;;;;;8.73;7.82;;;10.70;99.90;;;;;;2619338;39;20566;-73
2021/09/21 03:49:25;;;;;;;9.20;7.40;;;10.60;99.90;;;;;;2619334;47;20168;-73
2021/09/21 03:51:55;;;;;;;9.98;7.55;;;10.70;99.90;;;;;;2619048;47;20173;-73
2021/09/21 03:54:24;;;;;;;7.60;6.85;;;10.70;99.90;;;;;;2619075;46;20161;-73
2021/09/21 03:56:53;;;;;;;10.25;6.75;;;10.60;99.90;;;;;;2618957;54;20753;-73
2021/09/21 03:59:25;;;;;;;9.43;6.88;;;10.50;99.90;;;;;;2619324;47;20157;-73
2021/09/21 04:01:54;;;;;;;9.40;6.47;;;10.60;99.90;;;;;;2619094;47;20181;-73
2021/09/21 04:04:23;;;;;;;7.22;6.30;;;10.50;99.90;;;;;;2619351;39;20551;-73
2021/09/21 04:06:52;;;;;;;6.82;6.13;;;10.50;99.90;;;;;;2618933;54;20149;-74
2021/09/21 04:09:23;;;;;;;6.95;6.35;;;10.50;99.90;;;;;;2618989;54;20149;-73
2021/09/21 04:11:52;;;;;;;8.65;7.43;;;10.80;99.90;;;;;;2618878;54;20173;-73
2021/09/21 04:14:21;;;;;;;7.32;6.65;;;10.80;99.90;;;;;;2618746;54;20172;-73
2021/09/21 04:16:52;;;;;;;7.38;6.55;;;10.70;99.90;;;;;;2618888;54;20149;-73
2021/09/21 04:19:21;;;;;;;6.75;6.07;;;10.80;99.90;;;;;;2619007;47;20706;-73
2021/09/21 04:21:50;;;;;;;9.45;6.50;;;10.70;99.90;;;;;;2618928;54;20186;-73
2021/09/21 04:24:19;;;;;;;7.47;6.40;;;10.60;99.90;;;;;;2618544;47;20156;-73
2021/09/21 04:26:48;;;;;;;9.02;7.70;;;10.50;99.90;;;;;;2618560;47;20168;-73
2021/09/21 04:29:17;;;;;;;11.30;7.43;;;10.60;99.90;;;;;;2618692;47;20168;-73
2021/09/21 04:31:46;;;;;;;8.85;7.18;;;10.50;99.90;;;;;;2619035;47;20700;-73
2021/09/21 04:34:18;;;;;;;8.68;7.78;;;10.60;99.90;;;;;;2618739;54;20172;-73
2021/09/21 04:36:47;;;;;;;8.65;7.75;;;10.70;99.90;;;;;;2619045;47;20146;-73
2021/09/21 04:39:16;;;;;;;7.60;6.93;;;10.90;99.90;;;;;;2619213;47;20153;-73
2021/09/21 04:41:45;;;;;;;9.00;7.43;;;10.80;99.90;;;;;;2619023;54;20154;-73
2021/09/21 04:44:14;;;;;;;8.90;7.25;;;10.60;99.90;;;;;;2619207;39;20672;-73
2021/09/21 04:46:42;;;;;;;9.45;7.88;;;10.80;99.90;;;;;;2619461;39;20557;-73
2021/09/21 04:49:13;;;;;;;11.57;9.93;;;10.90;99.90;;;;;;2617548;47;20676;-73
2021/09/21 04:51:45;;;;;;;12.82;9.07;;;10.80;99.90;;;;;;2617652;54;20174;-72
2021/09/21 04:54:15;;;;;;;10.30;9.25;;;10.60;99.90;;;;;;2618200;47;20158;-72
2021/09/21 04:56:44;;;;;;;9.48;8.40;;;10.50;99.90;;;;;;2618774;52;20184;-73
2021/09/21 04:59:12;;;;;;;14.70;9.57;;;10.50;99.90;;;;;;2619439;39;20589;-73
2021/09/21 05:01:41;;;;;;;11.98;9.00;;;10.50;99.90;;;;;;2618553;54;20185;-73
2021/09/21 05:04:10;;;;;;;9.82;8.77;;;10.50;99.90;;;;;;2618312;47;20172;-73
2021/09/21 05:06:39;;;;;;;10.65;9.73;;;10.50;99.90;;;;;;2618675;47;20663;-72
2021/09/21 05:09:13;;;;;;;13.75;9.35;;;10.30;99.90;;;;;;2618264;46;20207;-73
2021/09/21 05:11:44;;;;;;;9.85;8.85;;;10.20;99.90;;;;;;2618673;39;20472;-73
2021/09/21 05:14:13;;;;;;;8.02;7.22;;;10.10;99.90;;;;;;2618356;54;20158;-73
2021/09/21 05:16:43;;;;;;;14.27;8.43;;;10.10;99.90;;;;;;2618596;46;20219;-73
2021/09/21 05:19:12;;;;;;;11.73;9.40;;;10.30;99.90;;;;;;2618633;54;20152;-73
2021/09/21 05:21:41;;;;;;;12.02;9.55;;;10.40;99.90;;;;;;2619147;47;20236;-73
2021/09/21 05:24:12;;;;;;;9.00;8.07;;;10.60;99.90;;;;;;2617978;54;20148;-73
2021/09/21 05:26:41;;;;;;;8.77;7.75;;;10.70;99.90;;;;;;2618987;47;20169;-73
2021/09/21 05:29:10;;;;;;;10.10;7.95;;;10.70;99.90;;;;;;2618941;46;20156;-73
2021/09/21 05:31:39;;;;;;;8.20;7.40;;;10.80;99.90;;;;;;2619141;54;20176;-72
2021/09/21 05:34:08;;;;;;;9.23;8.38;;;10.80;99.90;;;;;;2618308;54;20164;-73
2021/09/21 05:36:36;;;;;;;10.38;9.38;;;10.80;99.90;;;;;;2618446;47;20157;-73
2021/09/21 05:39:06;;;;;;;8.77;7.25;;;10.80;99.90;;;;;;2618333;47;20223;-73
2021/09/21 05:41:37;;;;;;;8.35;7.18;;;10.80;99.90;;;;;;2618683;54;20166;-73
2021/09/21 05:44:06;;;;;;;8.30;7.38;;;11.00;99.90;;;;;;2618712;47;20164;-73
2021/09/21 05:46:36;;;;;;;11.27;7.53;;;10.90;99.90;;;;;;2618563;47;20175;-73
2021/09/21 05:49:04;;;;;;;9.48;8.00;;;10.80;99.90;;;;;;2618396;54;20164;-73
2021/09/21 05:51:33;;;;;;;8.15;6.97;;;10.90;99.90;;;;;;2618316;54;20199;-73
2021/09/21 05:54:02;;;;;;;8.07;6.70;;;10.90;99.90;;;;;;2618352;47;20164;-74
2021/09/21 05:56:32;;;;;;;10.73;7.22;;;11.00;99.90;;;;;;2619516;54;20152;-74
2021/09/21 05:59:03;;;;;;;10.07;7.28;;;11.20;99.90;;;;;;2622215;47;20159;-73
2021/09/21 06:01:32;;;;;;;10.32;9.00;;;11.20;99.90;;;;;;2619901;54;20633;-73
2021/09/21 06:04:01;;;;;;;11.45;8.75;;;11.20;99.90;;;;;;2618686;54;20201;-74
2021/09/21 06:06:30;;;;;;;8.73;7.82;;;11.20;99.90;;;;;;2619179;47;20149;-74
2021/09/21 06:08:59;;;;;;;13.68;9.52;;;11.30;99.90;;;;;;2618811;47;20262;-74
2021/09/21 06:11:33;;;;;;;9.48;7.78;;;11.40;99.90;;;;;;2618591;47;20177;-74
2021/09/21 06:14:06;;;;;;;11.77;8.35;;;11.50;99.90;;;;;;2618667;47;20156;-74
2021/09/21 06:16:35;;;;;;;9.48;8.40;;;11.80;99.90;;;;;;2618647;47;20241;-74
2021/09/21 06:19:04;;;;;;;12.50;8.73;;;11.80;99.90;;;;;;2618630;54;20167;-74
2021/09/21 06:21:32;;;;;;;13.38;9.05;;;11.80;99.90;;;;;;2619148;47;20722;-74
2021/09/21 06:24:02;;;;;;;9.23;7.90;;;11.70;99.90;;;;;;2618893;54;20640;-74
2021/09/21 06:26:32;;;;;;;14.02;9.80;;;11.60;99.90;;;;;;2619185;47;20168;-74
2021/09/21 06:29:03;;;;;;;12.88;9.88;;;11.60;99.90;;;;;;2619140;54;20177;-74
2021/09/21 06:31:34;;;;;;;9.00;8.25;;;11.60;99.90;;;;;;2618763;47;20184;-74
2021/09/21 06:34:03;;;;;;;10.77;9.27;;;11.60;99.90;;;;;;2618924;54;20190;-74
2021/09/21 06:36:32;;;;;;;10.73;8.32;;;11.50;99.90;;;;;;2618677;47;20160;-74
2021/09/21 06:39:01;;;;;;;12.32;9.15;;;11.90;99.90;;;;;;2618656;47;20161;-74
2021/09/21 06:41:29;;;;;;;9.98;9.05;;;11.90;99.90;;;;;;2624363;46;20194;-74
2021/09/21 06:43:58;;;;;;;9.35;7.75;;;12.10;99.90;;;;;;2630583;39;20566;-74
2021/09/21 06:46:32;;;;;;;10.50;8.45;;;12.10;99.90;;;;;;2621047;47;20236;-75
2021/09/21 06:49:01;;;;;;;9.68;7.93;;;12.10;99.90;;;;;;2618560;47;20217;-74
2021/09/21 06:51:31;;;;;;;12.15;9.23;;;12.10;99.90;;;;;;2618458;47;20203;-74
2021/09/21 06:54:00;;;;;;;10.38;8.50;;;12.20;99.90;;;;;;2618223;47;20153;-74
2021/09/21 06:56:30;;;;;;;10.07;8.82;;;12.30;99.90;;;;;;2618381;39;20563;-74
2021/09/21 06:58:59;;;;;;;11.93;8.40;;;12.30;99.90;;;;;;2618914;47;20168;-74
2021/09/21 07:01:29;;;;;;;8.55;7.75;;;12.40;99.90;;;;;;2619435;47;20220;-75
2021/09/21 07:04:00;;;;;;;8.85;7.97;;;12.40;99.90;;;;;;2619643;54;20277;-74
2021/09/21 07:06:29;;;;;;;10.20;7.75;;;12.40;99.90;;;;;;2619197;54;20712;-74
2021/09/21 07:08:58;;;;;;;9.43;8.43;;;12.40;99.90;;;;;;2619647;47;20269;-74
2021/09/21 07:11:26;;;;;;;9.18;7.45;;;12.40;99.90;;;;;;2619184;54;20164;-74
2021/09/21 07:13:56;;;;;;;8.55;7.75;;;12.30;99.90;;;;;;2619675;46;20179;-74
2021/09/21 07:16:24;;;;;;;9.35;8.48;;;12.40;99.90;;;;;;2620378;39;20666;-74
2021/09/21 07:18:53;;;;;;;10.98;7.70;;;12.70;99.90;;;;;;2620191;47;20150;-74
2021/09/21 07:21:25;;;;;;;13.82;8.85;;;12.80;99.90;;;;;;2619967;47;20268;-74
2021/09/21 07:23:53;;;;;;;10.13;8.75;;;12.80;99.90;;;;;;2619664;54;20146;-74
2021/09/21 07:26:24;;;;;;;10.90;8.60;;;13.00;99.90;;;;;;2619878;47;20145;-74
2021/09/21 07:28:53;;;;;;;9.00;7.47;;;12.90;99.90;;;;;;2620051;54;20184;-75
2021/09/21 07:31:22;;;;;;;9.70;8.75;;;12.70;99.90;;;;;;2619436;49;20280;-74
2021/09/21 07:33:51;;;;;;;8.57;7.60;;;12.80;99.90;;;;;;2619641;54;20149;-74
2021/09/21 07:36:20;;;;;;;8.88;7.60;;;12.90;99.90;;;;;;2625641;54;20129;-74
2021/09/21 07:38:51;;;;;;;8.55;7.68;;;12.90;99.90;;;;;;2629922;54;20153;-74
2021/09/21 07:41:20;;;;;;;11.13;9.23;;;13.10;99.90;;;;;;2629852;51;20181;-75
2021/09/21 07:43:49;;;;;;;9.65;8.68;;;13.00;99.90;;;;;;2629308;54;20157;-74
2021/09/21 07:46:19;;;;;;;9.07;8.02;;;13.00;99.90;;;;;;2628972;54;20151;-74
2021/09/21 07:48:47;;;;;;;10.02;9.13;;;13.00;99.90;;;;;;2629884;47;20261;-74
2021/09/21 07:51:16;;;;;;;10.15;8.70;;;13.20;99.90;;;;;;2624731;47;20753;-74
2021/09/21 07:53:45;;;;;;;9.50;7.68;;;13.50;99.90;;;;;;2620047;54;20142;-74
2021/09/21 07:56:17;;;;;;;10.05;6.95;;;13.30;99.90;;;;;;2619966;39;20356;-74
2021/09/21 07:58:45;;;;;;;9.35;8.05;;;13.40;99.90;;;;;;2621053;47;20149;-74
2021/09/21 08:01:14;;;;;;;10.27;8.45;;;13.40;99.90;;;;;;2620561;47;20173;-74
2021/09/21 08:03:43;;;;;;;10.07;8.45;;;13.60;99.90;;;;;;2620906;54;20152;-74
2021/09/21 08:06:12;;;;;;;10.00;9.00;;;13.50;99.90;;;;;;2621198;54;20154;-74
2021/09/21 08:08:42;;;;;;;7.10;6.40;;;13.70;99.90;;;;;;2620801;47;20260;-75
2021/09/21 08:11:12;;;;;;;11.55;8.00;;;13.70;99.90;;;;;;2619759;49;20204;-75
2021/09/21 08:13:43;;;;;;;9.60;7.45;;;13.90;99.90;;;;;;2620206;54;20180;-74
2021/09/21 08:16:12;;;;;;;11.82;8.15;;;14.20;99.90;;;;;;2621097;47;20164;-76
2021/09/21 08:18:42;;;;;;;10.40;7.88;;;14.00;99.90;;;;;;2620884;47;20164;-74
2021/09/21 08:21:11;;;;;;;11.30;9.13;;;14.30;99.90;;;;;;2620601;47;20268;-74
2021/09/21 08:23:40;;;;;;;9.63;7.32;;;14.30;99.90;;;;;;2619886;47;20180;-74
2021/09/21 08:26:09;;;;;;;7.85;7.15;;;14.10;99.90;;;;;;2620505;47;20164;-74
2021/09/21 08:28:37;;;;;;;9.85;8.00;;;14.10;99.90;;;;;;2619667;47;20141;-75
2021/09/21 08:31:09;;;;;;;7.88;6.90;;;14.40;99.90;;;;;;2619657;47;20192;-74
2021/09/21 08:33:39;;;;;;;9.00;8.05;;;14.50;99.90;;;;;;2620207;47;20149;-75
2021/09/21 08:36:08;;;;;;;7.38;6.70;;;14.60;99.90;;;;;;2620353;54;20705;-75
2021/09/21 08:38:38;;;;;;;9.88;8.02;;;14.70;99.90;;;;;;2620203;46;20188;-75
2021/09/21 08:41:07;;;;;;;9.93;7.15;;;14.90;99.90;;;;;;2620039;54;20188;-76
2021/09/21 08:43:36;;;;;;;7.93;7.00;;;15.20;99.90;;;;;;2620130;46;20153;-74
2021/09/21 08:46:08;;;;;;;6.85;6.13;;;15.20;99.90;;;;;;2619413;47;20159;-74
2021/09/21 08:48:37;;;;;;;6.82;6.15;;;15.20;99.90;;;;;;2618873;46;20184;-74
2021/09/21 08:51:08;;;;;;;6.35;5.80;;;15.20;99.90;;;;;;2618981;54;20161;-75
2021/09/21 08:53:37;;;;;;;6.82;5.55;;;15.30;99.90;;;;;;2619405;54;20268;-74
2021/09/21 08:56:07;;;;;;;6.32;5.30;;;15.40;99.90;;;;;;2619549;54;20157;-74
2021/09/21 08:58:36;;;;;;;6.90;5.90;;;15.40;99.90;;;;;;2620023;54;20153;-74
2021/09/21 09:01:18;;;;;;;6.53;5.93;;;15.60;99.90;;;;;;2621865;31;20616;-74
2021/09/21 09:03:55;;;;;;;5.90;5.43;;;15.70;99.90;;;;;;2620186;47;20165;-74
2021/09/21 09:06:25;;;;;;;6.75;4.95;;;15.80;99.90;;;;;;2619546;47;20161;-76
2021/09/21 09:08:53;;;;;;;6.07;5.30;;;15.80;99.90;;;;;;2620726;47;20268;-74
2021/09/21 09:11:24;;;;;;;5.57;4.95;;;15.80;99.90;;;;;;2619956;54;20168;-74
2021/09/21 09:13:55;;;;;;;6.32;5.53;;;15.70;99.90;;;;;;2619030;47;20154;-74
2021/09/21 09:16:32;;;;;;;6.20;5.60;;;15.40;99.90;;;;;;2619343;47;20179;-74
2021/09/21 09:19:05;;;;;;;9.30;5.95;;;15.40;99.90;;;;;;2619460;47;20149;-75
2021/09/21 09:21:36;;;;;;;5.55;5.03;;;15.60;99.90;;;;;;2619491;47;20180;-73
2021/09/21 09:24:07;;;;;;;5.63;5.13;;;15.40;99.90;;;;;;2617425;54;20153;-73
2021/09/21 09:26:38;;;;;;;5.35;4.75;;;15.60;99.90;;;;;;2619575;54;20152;-74
2021/09/21 09:29:10;;;;;;;4.97;4.45;;;15.60;99.90;;;;;;2618832;54;20169;-73
2021/09/21 09:31:46;;;;;;;7.72;4.97;;;15.60;99.90;;;;;;2618091;46;20176;-74
2021/09/21 09:34:18;;;;;;;5.55;5.03;;;15.60;99.90;;;;;;2618066;47;20145;-74
2021/09/21 09:36:55;;;;;;;7.88;4.72;;;15.80;99.90;;;;;;2618803;54;20675;-74
2021/09/21 09:39:26;;;;;;;6.03;5.43;;;15.90;99.90;;;;;;2618653;54;20153;-74
2021/09/21 09:41:58;;;;;;;10.45;4.38;;;15.80;99.90;;;;;;2618876;54;20256;-74
2021/09/21 09:44:30;;;;;;;7.72;5.25;;;15.90;99.90;;;;;;2618662;51;20161;-74
2021/09/21 09:47:04;;;;;;;6.22;4.65;;;16.00;99.90;;;;;;2618470;47;20156;-75
2021/09/21 09:49:36;;;;;;;3.78;3.03;;;16.20;99.90;;;;;;2618719;54;20203;-74
2021/09/21 09:52:08;;;;;;;4.80;3.83;;;16.40;99.90;;;;;;2618473;47;20723;-74
2021/09/21 09:54:38;;;;;;;5.72;4.53;;;16.40;99.90;;;;;;2618152;54;20169;-74
2021/09/21 09:57:08;;;;;;;4.07;3.70;;;16.50;99.90;;;;;;2618475;51;20149;-74
2021/09/21 09:59:38;;;;;;;6.13;4.90;;;16.30;99.90;;;;;;2618719;47;20152;-74
2021/09/21 10:02:10;;;;;;;4.00;3.70;;;16.30;99.90;;;;;;2618498;47;20177;-74
2021/09/21 10:04:41;;;;;;;4.80;4.40;;;16.40;99.90;;;;;;2618399;46;20157;-74
2021/09/21 10:07:10;;;;;;;4.68;3.70;;;16.40;99.90;;;;;;2617767;54;20157;-74
2021/09/21 10:09:40;;;;;;;5.68;3.75;;;16.40;99.90;;;;;;2618345;47;20161;-73
2021/09/21 10:12:09;;;;;;;6.05;4.88;;;16.20;99.90;;;;;;2618601;47;20260;-74
2021/09/21 10:14:38;;;;;;;4.50;3.50;;;16.20;99.90;;;;;;2618996;39;20566;-74
2021/09/21 10:17:10;;;;;;;5.13;4.30;;;16.20;99.90;;;;;;2618255;54;20159;-74
2021/09/21 10:19:41;;;;;;;3.78;3.30;;;16.30;99.90;;;;;;2618369;54;20153;-74
2021/09/21 10:22:09;;;;;;;4.95;4.05;;;16.30;99.90;;;;;;2618765;47;20188;-74
2021/09/21 10:24:42;;;;;;;4.80;4.15;;;16.40;99.90;;;;;;2618533;54;20148;-73
2021/09/21 10:27:13;;;;;;;3.88;3.58;;;16.30;99.90;;;;;;2618538;47;20156;-74
2021/09/21 10:29:42;;;;;;;3.85;3.55;;;16.40;99.90;;;;;;2619930;54;20679;-74
2021/09/21 10:32:16;;;;;;;5.22;3.00;;;16.60;99.90;;;;;;2622727;54;20173;-74
2021/09/21 10:34:47;;;;;;;5.25;4.18;;;16.60;99.90;;;;;;2621860;54;20236;-74
2021/09/21 10:37:18;;;;;;;6.70;3.40;;;16.90;99.90;;;;;;2620148;47;20167;-73
2021/09/21 10:39:48;;;;;;;4.35;3.40;;;16.90;99.90;;;;;;2620337;47;20187;-73
2021/09/21 10:42:24;;;;;;;6.25;4.50;;;16.90;99.90;;;;;;2620072;47;20177;-74
2021/09/21 10:44:55;;;;;;;3.65;3.35;;;17.00;99.90;;;;;;2627850;47;20151;-74
2021/09/21 10:47:27;;;;;;;3.03;2.83;;;17.20;99.90;;;;;;2628008;39;20704;-74
2021/09/21 10:50:09;;;;;;;4.57;3.55;;;17.30;99.90;;;;;;2621429;46;20229;-74
2021/09/21 10:52:38;;;;;;;4.28;3.70;;;17.20;99.90;;;;;;2620351;47;20149;-74
2021/09/21 10:55:11;;;;;;;4.82;2.80;;;17.30;99.90;;;;;;2620372;39;20610;-74
2021/09/21 10:57:43;;;;;;;4.03;2.67;;;17.20;99.90;;;;;;2620605;47;20141;-74
2021/09/21 11:00:15;;;;;;;3.78;2.80;;;17.00;99.90;;;;;;2620322;54;20349;-74
2021/09/21 11:02:48;;;;;;;3.35;2.88;;;16.80;99.90;;;;;;2620234;54;20683;-74
2021/09/21 11:05:19;;;;;;;3.25;2.80;;;16.90;99.90;;;;;;2620409;46;20157;-74
2021/09/21 11:07:51;;;;;;;3.40;3.00;;;16.90;99.90;;;;;;2620649;54;20168;-74
2021/09/21 11:10:21;;;;;;;4.07;2.78;;;16.80;99.90;;;;;;2620262;54;20159;-74
2021/09/21 11:12:51;;;;;;;4.47;3.33;;;16.90;99.90;;;;;;2621264;54;20157;-75
2021/09/21 11:15:24;;;;;;;2.80;2.60;;;17.20;99.90;;;;;;2621007;54;20160;-74
2021/09/21 11:18:03;;;;;;;3.30;3.00;;;17.20;99.90;;;;;;2621456;47;20216;-73
2021/09/21 11:20:32;;;;;;;6.70;4.05;;;17.00;99.90;;;;;;2620717;54;20165;-74
2021/09/21 11:23:05;;;;;;;3.22;2.92;;;16.80;99.90;;;;;;2621409;54;20153;-74
2021/09/21 11:25:34;;;;;;;4.60;3.35;;;16.80;99.90;;;;;;2621819;54;20706;-76
2021/09/21 11:28:03;;;;;;;8.35;3.40;;;17.00;99.90;;;;;;2622027;54;20149;-75
2021/09/21 11:30:32;;;;;;;3.13;2.83;;;17.10;99.90;;;;;;2621310;46;20164;-74
2021/09/21 11:33:12;;;;;;;4.47;3.75;;;16.90;99.90;;;;;;2620907;47;20157;-74
2021/09/21 11:35:44;;;;;;;4.18;3.75;;;16.90;99.90;;;;;;2620751;54;20157;-74
2021/09/21 11:38:13;;;;;;;3.35;2.92;;;16.80;99.90;;;;;;2621117;54;20153;-74
2021/09/21 11:40:43;;;;;;;3.13;2.83;;;16.80;99.90;;;;;;2620901;54;20165;-74
2021/09/21 11:43:13;;;;;;;3.20;2.85;;;16.80;99.90;;;;;;2621267;47;20601;-74
2021/09/21 11:45:45;;;;;;;3.70;3.40;;;16.60;99.90;;;;;;2621006;39;20706;-74
2021/09/21 11:48:17;;;;;;;5.00;3.05;;;16.60;99.90;;;;;;2620924;54;20928;-74
2021/09/21 11:50:47;;;;;;;2.85;2.65;;;16.80;99.90;;;;;;2620974;31;20663;-74
2021/09/21 11:53:18;;;;;;;3.25;2.95;;;16.70;99.90;;;;;;2619786;54;20149;-74
2021/09/21 11:55:49;;;;;;;2.83;2.55;;;16.40;99.90;;;;;;2621001;54;20153;-75
2021/09/21 11:58:19;;;;;;;3.92;2.95;;;16.50;99.90;;;;;;2625728;47;20157;-75
2021/09/21 12:00:51;;;;;;;3.13;2.92;;;16.40;99.90;;;;;;2624806;47;20212;-75
2021/09/21 12:03:25;;;;;;;3.70;3.40;;;16.40;99.90;;;;;;2623152;54;20225;-76
2021/09/21 12:05:56;;;;;;;3.50;3.20;;;16.30;99.90;;;;;;2626947;47;20176;-75
2021/09/21 12:08:28;;;;;;;4.13;2.95;;;16.50;99.90;;;;;;2629528;54;20169;-76
2021/09/21 12:10:58;;;;;;;4.20;3.38;;;16.50;99.90;;;;;;2630466;47;20157;-76
2021/09/21 15:22:50;;;;;;;3.25;2.55;;;16.40;99.90;;;;;;2617847;46;20223;-68
2021/09/21 15:25:20;;;;;;;4.00;2.38;;;18.50;99.90;;;;;;2617357;47;20168;-72
2021/09/21 15:27:49;;;;;;;2.58;2.08;;;18.40;99.90;;;;;;2618180;47;20171;-72
2021/09/21 15:30:20;;;;;;;2.25;2.00;;;18.40;99.90;;;;;;2617843;54;20180;-70
2021/09/21 15:32:49;;;;;;;4.63;2.42;;;18.30;99.90;;;;;;2617434;54;20146;-73
2021/09/21 15:35:18;;;;;;;2.78;2.25;;;18.20;99.90;;;;;;2617396;51;20323;-72
2021/09/21 15:37:51;;;;;;;2.88;2.40;;;18.10;99.90;;;;;;2617750;54;20204;-72
2021/09/21 15:40:23;;;;;;;4.70;4.30;;;17.60;99.90;;;;;;2625141;54;20154;-71
2021/09/21 15:42:53;;;;;;;3.28;2.60;;;17.50;99.90;;;;;;2622796;54;20157;-72
2021/09/21 15:45:23;;;;;;;5.05;3.50;;;17.40;99.90;;;;;;2618167;54;20157;-71
2021/09/21 15:47:52;;;;;;;5.85;5.30;;;17.70;99.90;;;;;;2618481;47;20157;-70
2021/09/21 15:50:21;;;;;;;5.35;3.97;;;17.70;99.90;;;;;;2618402;54;20172;-72
2021/09/21 15:52:53;;;;;;;2.92;2.72;;;17.50;99.90;;;;;;2618471;54;20263;-72
2021/09/21 15:55:22;;;;;;;12.52;11.32;;;17.40;99.90;;;;;;2618950;39;20583;-73
2021/09/21 15:57:52;;;;;;;7.15;4.45;;;17.40;99.90;;;;;;2618895;54;20163;-72
2021/09/21 16:00:23;;;;;;;3.95;2.28;;;17.30;99.90;;;;;;2618993;31;20640;-71
2021/09/21 16:02:53;;;;;;;3.35;3.05;;;17.20;99.90;;;;;;2618447;54;20156;-72
2021/09/21 16:05:22;;;;;;;3.90;2.70;;;17.30;99.90;;;;;;2617474;47;20158;-71
2021/09/21 16:07:56;;;;;;;2.63;2.42;;;17.40;99.90;;;;;;2618484;54;20176;-71
2021/09/21 16:10:27;;;;;;;2.38;2.17;;;17.50;99.90;;;;;;2618168;54;20184;-70
2021/09/21 16:12:57;;;;;;;4.50;2.72;;;17.50;99.90;;;;;;2618668;46;20160;-71
2021/09/21 16:15:26;;;;;;;3.70;2.65;;;17.30;99.90;;;;;;2619057;47;20146;-70
2021/09/21 16:17:56;;;;;;;2.65;2.45;;;17.10;99.90;;;;;;2618688;54;20236;-72